Time;durP1;ratioP1;P1;durP2;ratioP2;P2;SDS_P1;SDS_P2;PMS_P1;PMS_P2;Temp;Humidity;BMP_temperature;BMP_pressure;BME280_temperature;BME280_humidity;BME280_pressure;Samples;Min_cycle;Max_cycle;Signal;HPM_P1;HPM_P2
2024/04/13 00:01:19;;;;;;;5.45;2.70;;;;;;;;;;4988115;28;87331;-80
2024/04/13 00:03:46;;;;;;;6.75;2.58;;;;;;;;;;4962001;28;86987;-82
2024/04/13 00:06:13;;;;;;;5.43;2.60;;;;;;;;;;4988607;28;86761;-81
2024/04/13 00:08:41;;;;;;;4.78;2.45;;;;;;;;;;4988662;28;86231;-81
2024/04/13 00:11:08;;;;;;;6.20;2.50;;;;;;;;;;4991596;28;86913;-80
2024/04/13 00:13:36;;;;;;;5.40;2.63;;;;;;;;;;4985283;28;88649;-81
2024/04/13 00:16:04;;;;;;;5.43;2.40;;;;;;;;;;4986972;28;88870;-81
2024/04/13 00:18:42;;;;;;;5.15;2.50;;;;;;;;;;4988202;28;86380;-82
2024/04/13 00:21:14;;;;;;;4.97;2.22;;;;;;;;;;4986979;28;86941;-81
2024/04/13 00:23:46;;;;;;;4.93;2.38;;;;;;;;;;4988127;28;86729;-82
2024/04/13 00:26:14;;;;;;;4.65;2.28;;;;;;;;;;5013465;27;86836;-82
2024/04/13 00:28:44;;;;;;;4.90;2.13;;;;;;;;;;4958477;28;86320;-82
2024/04/13 00:31:11;;;;;;;5.55;2.13;;;;;;;;;;4982293;28;89461;-81
2024/04/13 00:33:38;;;;;;;;;;;;;;;;;;4979770;28;89356;-82
2024/04/13 00:36:13;;;;;;;6.95;2.10;;;;;;;;;;5012638;28;87708;-82
2024/04/13 00:38:43;;;;;;;6.93;2.25;;;;;;;;;;4968006;28;86909;-81
2024/04/13 00:41:12;;;;;;;6.32;1.88;;;;;;;;;;5006914;28;86571;-81
2024/04/13 00:43:42;;;;;;;3.60;1.70;;;;;;;;;;4979285;28;86809;-82
2024/04/13 00:46:23;;;;;;;4.65;1.90;;;;;;;;;;4953478;28;89979;-81
2024/04/13 00:49:10;;;;;;;3.92;1.80;;;;;;;;;;5027810;27;87526;-80
2024/04/13 00:51:38;;;;;;;3.55;1.75;;;;;;;;;;5043137;27;86351;-81
2024/04/13 00:54:22;;;;;;;4.15;1.98;;;;;;;;;;5022408;27;85810;-80
2024/04/13 00:56:53;;;;;;;4.35;1.70;;;;;;;;;;4931564;28;87670;-79
2024/04/13 00:59:24;;;;;;;2.92;1.50;;;;;;;;;;4981735;28;88756;-81
2024/04/13 01:01:52;;;;;;;2.78;1.65;;;;;;;;;;4956358;28;87242;-82
2024/04/13 01:04:21;;;;;;;4.80;1.80;;;;;;;;;;4907093;28;89627;-86
2024/04/13 01:06:50;;;;;;;3.03;1.33;;;;;;;;;;4981078;28;90603;-82
2024/04/13 01:09:20;;;;;;;3.60;1.60;;;;;;;;;;4966605;28;87795;-81
2024/04/13 01:11:47;;;;;;;3.35;1.70;;;;;;;;;;5012153;28;87809;-83
2024/04/13 01:14:36;;;;;;;7.95;1.90;;;;;;;;;;4973354;28;87966;-84
2024/04/13 01:17:08;;;;;;;7.80;2.00;;;;;;;;;;4951801;28;88443;-83
2024/04/13 01:19:38;;;;;;;6.55;1.95;;;;;;;;;;4954025;28;87200;-83
2024/04/13 01:22:07;;;;;;;15.93;2.13;;;;;;;;;;4986671;28;88438;-83
2024/04/13 01:24:40;;;;;;;6.20;1.70;;;;;;;;;;4962725;28;88440;-83
2024/04/13 01:27:13;;;;;;;7.57;1.63;;;;;;;;;;4986789;28;87731;-83
2024/04/13 01:29:40;;;;;;;5.45;1.90;;;;;;;;;;5012290;28;86867;-82
2024/04/13 01:32:07;;;;;;;3.28;1.55;;;;;;;;;;4989904;28;88251;-82
2024/04/13 01:34:38;;;;;;;3.13;1.50;;;;;;;;;;5010758;28;90093;-84
2024/04/13 01:37:11;;;;;;;6.40;1.90;;;;;;;;;;5014146;27;86576;-83
2024/04/13 01:39:39;;;;;;;4.63;1.63;;;;;;;;;;4964852;28;89696;-82
2024/04/13 01:42:11;;;;;;;3.00;1.30;;;;;;;;;;4985861;28;86367;-83
2024/04/13 01:44:44;;;;;;;4.90;1.40;;;;;;;;;;5002734;28;89158;-82
2024/04/13 01:47:17;;;;;;;3.05;1.30;;;;;;;;;;5014879;28;88681;-82
2024/04/13 01:49:58;;;;;;;6.38;1.60;;;;;;;;;;4984848;27;88430;-83
2024/04/13 01:52:31;;;;;;;2.47;1.58;;;;;;;;;;4988516;28;87330;-86
2024/04/13 01:55:02;;;;;;;3.33;1.63;;;;;;;;;;5019091;27;87046;-84
2024/04/13 01:57:49;;;;;;;3.40;1.40;;;;;;;;;;4994008;28;86478;-84
2024/04/13 02:00:23;;;;;;;4.18;1.20;;;;;;;;;;5004011;27;93804;-84
2024/04/13 02:02:54;;;;;;;3.03;1.40;;;;;;;;;;4965877;28;86873;-84
2024/04/13 02:05:33;;;;;;;2.97;1.20;;;;;;;;;;5012853;28;90416;-84
2024/04/13 02:08:02;;;;;;;3.00;1.30;;;;;;;;;;4960361;27;91719;-83
2024/04/13 02:10:39;;;;;;;3.78;1.30;;;;;;;;;;5008586;28;87704;-83
2024/04/13 02:13:17;;;;;;;3.45;1.40;;;;;;;;;;4989929;28;87574;-83
2024/04/13 02:15:58;;;;;;;5.00;1.50;;;;;;;;;;4983784;27;87335;-84
2024/04/13 02:18:32;;;;;;;2.65;1.38;;;;;;;;;;4963537;28;87380;-83
2024/04/13 02:20:59;;;;;;;;;;;;;;;;;;4963338;28;90667;-84
2024/04/13 02:23:31;;;;;;;2.70;1.30;;;;;;;;;;4988943;28;88616;-84
2024/04/13 02:26:09;;;;;;;3.15;1.50;;;;;;;;;;4955836;28;86504;-83
2024/04/13 02:28:42;;;;;;;3.00;1.30;;;;;;;;;;4979109;28;86687;-83
2024/04/13 02:31:10;;;;;;;3.88;1.40;;;;;;;;;;4987818;28;87445;-84
2024/04/13 02:33:39;;;;;;;2.25;1.25;;;;;;;;;;5029262;28;86872;-83
2024/04/13 02:36:07;;;;;;;2.90;1.40;;;;;;;;;;4963453;28;88297;-83
2024/04/13 02:38:41;;;;;;;3.03;1.40;;;;;;;;;;4966509;28;87989;-81
2024/04/13 02:41:10;;;;;;;3.13;1.30;;;;;;;;;;5036065;27;86218;-81
2024/04/13 02:43:38;;;;;;;2.85;1.30;;;;;;;;;;5013826;28;89249;-81
2024/04/13 02:46:08;;;;;;;4.63;1.50;;;;;;;;;;4968642;28;86272;-84
2024/04/13 02:48:47;;;;;;;4.68;1.60;;;;;;;;;;5038719;27;89099;-83
2024/04/13 02:51:23;;;;;;;3.20;1.42;;;;;;;;;;5000618;28;86115;-84
2024/04/13 02:53:51;;;;;;;3.90;1.30;;;;;;;;;;5049347;27;88844;-83
2024/04/13 02:56:21;;;;;;;3.03;1.35;;;;;;;;;;5003296;28;86587;-83
2024/04/13 02:58:50;;;;;;;2.60;1.40;;;;;;;;;;4968873;28;86558;-84
2024/04/13 03:01:18;;;;;;;4.65;1.52;;;;;;;;;;4995362;28;86748;-83
2024/04/13 03:03:48;;;;;;;2.88;1.20;;;;;;;;;;4991298;27;89443;-84
2024/04/13 03:06:15;;;;;;;3.45;1.25;;;;;;;;;;4966374;28;86145;-83
2024/04/13 03:08:42;;;;;;;3.78;1.48;;;;;;;;;;4992901;28;86996;-82
2024/04/13 03:11:14;;;;;;;3.85;1.50;;;;;;;;;;4991588;28;87530;-82
2024/04/13 03:13:42;;;;;;;3.75;1.40;;;;;;;;;;4986489;28;86289;-81
2024/04/13 03:16:10;;;;;;;;;;;;;;;;;;4988604;28;89596;-82
2024/04/13 03:18:46;;;;;;;4.80;1.50;;;;;;;;;;4989898;28;88092;-84
2024/04/13 03:21:15;;;;;;;3.15;1.40;;;;;;;;;;4968406;28;89892;-82
2024/04/13 03:23:43;;;;;;;2.63;1.30;;;;;;;;;;5005032;27;86236;-84
2024/04/13 03:26:16;;;;;;;4.85;1.40;;;;;;;;;;4981612;28;86840;-83
2024/04/13 03:28:43;;;;;;;6.70;1.58;;;;;;;;;;4932478;28;86683;-84
2024/04/13 03:31:11;;;;;;;5.82;1.30;;;;;;;;;;4980854;28;89829;-83
2024/04/13 03:33:37;;;;;;;5.28;1.75;;;;;;;;;;4952581;28;87293;-83
2024/04/13 03:36:07;;;;;;;3.63;1.40;;;;;;;;;;5004095;28;90043;-84
2024/04/13 03:38:37;;;;;;;3.65;1.42;;;;;;;;;;4999465;28;86268;-82
2024/04/13 03:41:07;;;;;;;4.25;1.45;;;;;;;;;;5041657;27;87859;-83
2024/04/13 03:43:36;;;;;;;3.17;1.50;;;;;;;;;;5042508;27;89405;-83
2024/04/13 03:46:11;;;;;;;4.15;1.35;;;;;;;;;;5018163;28;89937;-82
2024/04/13 03:48:43;;;;;;;4.13;1.50;;;;;;;;;;5043164;27;88251;-84
2024/04/13 03:51:13;;;;;;;3.53;1.27;;;;;;;;;;4963622;28;86229;-84
2024/04/13 03:53:41;;;;;;;2.88;1.50;;;;;;;;;;4964394;28;86396;-84
2024/04/13 03:56:13;;;;;;;6.10;1.55;;;;;;;;;;4961584;28;89809;-82
2024/04/13 03:58:40;;;;;;;3.85;1.42;;;;;;;;;;4935933;28;87627;-81
2024/04/13 04:01:07;;;;;;;9.85;1.50;;;;;;;;;;4960685;28;88551;-82
2024/04/13 04:03:35;;;;;;;;;;;;;;;;;;4984608;28;87449;-82
2024/04/13 04:06:04;;;;;;;6.20;1.77;;;;;;;;;;4962425;28;88229;-80
2024/04/13 04:08:33;;;;;;;4.25;1.40;;;;;;;;;;4986462;28;86855;-82
2024/04/13 04:11:02;;;;;;;4.18;1.50;;;;;;;;;;4986113;28;86812;-82
2024/04/13 04:13:29;;;;;;;4.03;1.52;;;;;;;;;;4960190;28;88127;-83
2024/04/13 04:15:58;;;;;;;3.50;1.35;;;;;;;;;;4988163;27;87035;-81
2024/04/13 04:18:26;;;;;;;3.22;1.42;;;;;;;;;;4985741;28;88284;-81
2024/04/13 04:20:53;;;;;;;2.35;1.30;;;;;;;;;;4987098;28;86276;-82
2024/04/13 04:23:21;;;;;;;4.28;1.50;;;;;;;;;;4959991;28;87716;-84
2024/04/13 04:25:50;;;;;;;3.85;1.40;;;;;;;;;;4995978;27;86559;-82
2024/04/13 04:28:17;;;;;;;;;;;;;;;;;;4963228;28;89072;-81
2024/04/13 04:30:46;;;;;;;3.53;1.60;;;;;;;;;;5014750;28;86926;-82
2024/04/13 04:33:13;;;;;;;;;;;;;;;;;;5014410;28;86416;-82
2024/04/13 04:35:41;;;;;;;3.95;1.40;;;;;;;;;;5001991;27;86427;-84
2024/04/13 04:38:11;;;;;;;3.10;1.30;;;;;;;;;;5021767;27;86717;-81
2024/04/13 04:40:39;;;;;;;3.20;1.35;;;;;;;;;;4993790;28;88841;-82
2024/04/13 04:43:07;;;;;;;4.70;1.50;;;;;;;;;;4991945;28;88965;-83
2024/04/13 04:45:37;;;;;;;3.97;1.40;;;;;;;;;;5008299;28;88122;-83
2024/04/13 04:48:09;;;;;;;6.35;1.67;;;;;;;;;;5008889;28;88010;-80
2024/04/13 04:51:00;;;;;;;4.65;1.50;;;;;;;;;;4962262;28;89330;-79
2024/04/13 04:53:35;;;;;;;5.13;1.58;;;;;;;;;;4985491;28;87888;-80
2024/04/13 04:56:09;;;;;;;3.42;1.50;;;;;;;;;;4935619;28;91061;-80
2024/04/13 04:58:44;;;;;;;3.78;1.60;;;;;;;;;;4989465;28;89589;-80
2024/04/13 05:01:23;;;;;;;3.78;1.50;;;;;;;;;;4991623;28;86364;-81
2024/04/13 05:03:50;;;;;;;4.32;1.55;;;;;;;;;;4987027;28;92460;-79
2024/04/13 05:06:29;;;;;;;2.78;1.35;;;;;;;;;;4961753;28;85551;-84
2024/04/13 05:08:58;;;;;;;4.32;1.50;;;;;;;;;;4987473;28;88585;-84
2024/04/13 05:11:33;;;;;;;4.22;1.50;;;;;;;;;;5012796;28;86735;-84
2024/04/13 05:14:05;;;;;;;2.97;1.45;;;;;;;;;;4960388;28;92636;-84
2024/04/13 05:16:38;;;;;;;4.25;1.60;;;;;;;;;;4964333;28;87558;-83
2024/04/13 05:19:06;;;;;;;2.65;1.48;;;;;;;;;;4962310;28;89785;-84
2024/04/13 05:21:34;;;;;;;6.13;1.50;;;;;;;;;;5017945;28;86173;-87
2024/04/13 05:24:21;;;;;;;6.00;1.63;;;;;;;;;;4910377;28;91443;-86
2024/04/13 05:26:58;;;;;;;4.32;1.67;;;;;;;;;;5037285;28;88106;-85
2024/04/13 05:29:38;;;;;;;4.22;1.55;;;;;;;;;;4959880;28;88661;-85
2024/04/13 05:32:12;;;;;;;3.97;1.45;;;;;;;;;;4961188;28;86095;-85
2024/04/13 05:34:47;;;;;;;4.93;1.40;;;;;;;;;;5015351;28;86503;-84
2024/04/13 05:37:17;;;;;;;3.45;1.60;;;;;;;;;;5004023;28;87148;-85
2024/04/13 05:39:49;;;;;;;5.10;1.70;;;;;;;;;;4990278;27;88054;-84
2024/04/13 05:42:20;;;;;;;2.70;1.55;;;;;;;;;;4990647;28;89805;-85
2024/04/13 05:44:58;;;;;;;3.45;1.48;;;;;;;;;;4978398;28;89431;-84
2024/04/13 05:47:28;;;;;;;4.30;1.70;;;;;;;;;;4961925;28;89404;-84
2024/04/13 05:50:04;;;;;;;2.40;1.40;;;;;;;;;;5013367;28;91699;-85
2024/04/13 05:52:37;;;;;;;4.82;1.50;;;;;;;;;;4970196;28;87548;-84
2024/04/13 05:55:06;;;;;;;4.00;1.33;;;;;;;;;;5019362;27;87319;-83
2024/04/13 05:57:35;;;;;;;5.10;1.52;;;;;;;;;;5045209;27;89305;-83
2024/04/13 06:00:04;;;;;;;3.33;1.50;;;;;;;;;;4990619;28;91615;-82
2024/04/13 06:02:31;;;;;;;4.90;1.55;;;;;;;;;;4986911;28;87940;-82
2024/04/13 06:04:59;;;;;;;3.08;1.40;;;;;;;;;;4986252;28;89972;-83
2024/04/13 06:07:27;;;;;;;3.90;1.42;;;;;;;;;;4991611;28;87833;-81
2024/04/13 06:09:57;;;;;;;3.97;1.67;;;;;;;;;;5013322;28;87101;-85
2024/04/13 06:12:25;;;;;;;2.60;1.30;;;;;;;;;;4986922;28;87648;-83
2024/04/13 06:14:52;;;;;;;;;;;;;;;;;;4961100;28;86700;-81
2024/04/13 06:17:19;;;;;;;4.43;1.40;;;;;;;;;;4988674;28;86574;-81
2024/04/13 06:19:47;;;;;;;3.97;1.52;;;;;;;;;;4960742;28;89859;-82
2024/04/13 06:22:20;;;;;;;6.10;1.58;;;;;;;;;;4960579;28;91255;-83
2024/04/13 06:24:52;;;;;;;2.72;1.30;;;;;;;;;;4986822;28;88954;-82
2024/04/13 06:27:22;;;;;;;5.35;1.63;;;;;;;;;;5015852;28;88812;-82
2024/04/13 06:29:50;;;;;;;5.28;1.55;;;;;;;;;;5006845;28;89239;-82
2024/04/13 06:32:18;;;;;;;3.92;1.40;;;;;;;;;;5016260;28;87214;-80
2024/04/13 06:34:46;;;;;;;4.38;1.50;;;;;;;;;;5028222;27;87014;-81
2024/04/13 06:37:14;;;;;;;2.85;1.40;;;;;;;;;;5043386;27;88831;-82
2024/04/13 06:39:44;;;;;;;6.05;1.60;;;;;;;;;;4990554;28;86970;-81
2024/04/13 06:42:14;;;;;;;5.47;1.50;;;;;;;;;;4990235;28;87533;-83
2024/04/13 06:44:53;;;;;;;4.38;1.55;;;;;;;;;;4958938;28;86822;-84
2024/04/13 06:47:30;;;;;;;3.88;1.63;;;;;;;;;;4936896;28;86243;-84
2024/04/13 06:50:00;;;;;;;6.10;1.58;;;;;;;;;;4968495;28;90109;-82
2024/04/13 06:52:36;;;;;;;5.55;1.60;;;;;;;;;;4983065;28;89523;-86
2024/04/13 06:55:16;;;;;;;6.47;1.60;;;;;;;;;;4958951;28;88822;-83
2024/04/13 06:57:52;;;;;;;9.75;1.70;;;;;;;;;;4974272;28;90130;-83
2024/04/13 07:00:22;;;;;;;4.47;1.40;;;;;;;;;;4955253;28;89929;-85
2024/04/13 07:02:56;;;;;;;4.30;1.58;;;;;;;;;;4978123;28;87934;-87
2024/04/13 07:05:32;;;;;;;4.05;1.60;;;;;;;;;;4991892;28;88925;-86
2024/04/13 07:08:19;;;;;;;4.80;1.63;;;;;;;;;;4991378;28;92161;-85
2024/04/13 07:11:07;;;;;;;4.40;1.50;;;;;;;;;;5013620;28;86091;-86
2024/04/13 07:13:46;;;;;;;6.15;1.60;;;;;;;;;;4987129;27;85989;-88
2024/04/13 07:16:53;;;;;;;5.00;1.63;;;;;;;;;;5101415;22;88828;-87
2024/04/13 07:23:50;;;;;;;4.35;1.60;;;;;;;;;;4995654;27;88378;-87
2024/04/13 07:30:32;;;;;;;5.43;1.50;;;;;;;;;;4982563;26;87841;-87
2024/04/13 07:33:24;;;;;;;3.58;1.50;;;;;;;;;;4950132;28;88110;-86
2024/04/13 07:36:30;;;;;;;3.97;1.60;;;;;;;;;;5030523;23;87476;-83
2024/04/13 07:39:12;;;;;;;4.45;1.58;;;;;;;;;;5004302;28;88771;-86
2024/04/13 07:42:06;;;;;;;4.25;1.67;;;;;;;;;;4994522;27;91827;-86
2024/04/13 07:44:39;;;;;;;;;;;;;;;;;;5017906;23;88644;-88
2024/04/13 07:47:40;;;;;;;3.95;1.50;;;;;;;;;;5193357;23;89653;-86
2024/04/13 07:50:52;;;;;;;4.53;1.50;;;;;;;;;;5264107;23;89676;-86
2024/04/13 07:59:50;;;;;;;4.72;1.60;;;;;;;;;;5120667;22;88528;-87
2024/04/13 08:02:25;;;;;;;3.50;1.60;;;;;;;;;;4929421;28;88236;-87
2024/04/13 08:05:00;;;;;;;3.83;1.40;;;;;;;;;;4931954;28;88455;-86
2024/04/13 08:07:40;;;;;;;4.53;1.65;;;;;;;;;;4954827;28;87922;-86
2024/04/13 08:10:16;;;;;;;3.85;1.60;;;;;;;;;;4935693;28;91811;-86
2024/04/13 08:13:01;;;;;;;4.45;1.60;;;;;;;;;;4962109;28;87775;-86
2024/04/13 08:15:37;;;;;;;3.58;1.42;;;;;;;;;;4923065;28;92604;-87
2024/04/13 08:21:25;;;;;;;3.65;1.50;;;;;;;;;;4944671;28;93937;-87
2024/04/13 08:24:53;;;;;;;4.30;1.65;;;;;;;;;;4929167;28;93199;-87
2024/04/13 08:27:34;;;;;;;3.70;1.50;;;;;;;;;;4901306;28;88093;-86
2024/04/13 08:30:27;;;;;;;3.97;1.63;;;;;;;;;;4924929;23;89950;-87
2024/04/13 08:33:05;;;;;;;4.22;1.48;;;;;;;;;;5002111;28;89878;-88
2024/04/13 08:35:51;;;;;;;3.92;1.48;;;;;;;;;;4989900;27;86764;-85
2024/04/13 08:38:26;;;;;;;3.17;1.42;;;;;;;;;;5049197;27;90420;-87
2024/04/13 08:41:05;;;;;;;3.35;1.50;;;;;;;;;;5019855;27;89227;-87
2024/04/13 08:44:06;;;;;;;3.85;1.60;;;;;;;;;;5042635;27;86959;-84
2024/04/13 08:47:05;;;;;;;3.92;1.60;;;;;;;;;;5038505;27;90017;-83
2024/04/13 08:50:04;;;;;;;3.60;1.65;;;;;;;;;;4932397;28;91969;-88
2024/04/13 08:52:51;;;;;;;3.30;1.50;;;;;;;;;;5005582;28;86261;-85
2024/04/13 08:55:27;;;;;;;3.20;1.50;;;;;;;;;;4956140;28;89860;-86
2024/04/13 08:59:01;;;;;;;3.00;1.33;;;;;;;;;;4973712;28;91143;-84
2024/04/13 09:01:37;;;;;;;5.47;1.60;;;;;;;;;;4983924;28;89585;-80
2024/04/13 09:04:05;;;;;;;3.47;1.75;;;;;;;;;;5016687;28;87408;-78
2024/04/13 09:06:32;;;;;;;4.40;1.65;;;;;;;;;;5022388;28;88126;-80
2024/04/13 09:09:08;;;;;;;4.03;1.65;;;;;;;;;;5020594;28;88729;-81
2024/04/13 09:11:35;;;;;;;3.88;1.60;;;;;;;;;;5046879;27;86382;-82
2024/04/13 09:14:03;;;;;;;;;;;;;;;;;;5049364;27;86201;-80
2024/04/13 09:16:31;;;;;;;4.43;1.73;;;;;;;;;;5022539;28;88251;-79
2024/04/13 09:18:59;;;;;;;5.20;1.60;;;;;;;;;;5021122;28;87091;-79
2024/04/13 09:21:31;;;;;;;4.38;1.80;;;;;;;;;;5024216;28;87012;-79
2024/04/13 09:23:58;;;;;;;5.10;2.00;;;;;;;;;;5047741;27;86938;-79
2024/04/13 09:26:25;;;;;;;3.47;1.70;;;;;;;;;;5048181;27;86802;-77
2024/04/13 09:28:52;;;;;;;6.20;2.00;;;;;;;;;;5048348;27;86702;-76
2024/04/13 09:31:19;;;;;;;5.85;2.00;;;;;;;;;;5047569;27;86954;-78
2024/04/13 09:33:50;;;;;;;5.50;1.95;;;;;;;;;;5047671;27;85681;-78
2024/04/13 09:36:24;;;;;;;5.72;2.00;;;;;;;;;;5049150;27;86713;-82
2024/04/13 09:39:04;;;;;;;6.38;2.08;;;;;;;;;;5015361;28;88251;-86
2024/04/13 09:41:59;;;;;;;5.00;2.00;;;;;;;;;;5003926;27;88833;-85
2024/04/13 09:44:56;;;;;;;6.45;2.10;;;;;;;;;;5006610;28;89716;-84
2024/04/13 09:47:55;;;;;;;6.70;2.05;;;;;;;;;;5020338;27;89580;-83
2024/04/13 09:50:25;;;;;;;9.55;2.22;;;;;;;;;;4994141;28;88875;-81
2024/04/13 09:53:12;;;;;;;5.57;2.28;;;;;;;;;;5006478;27;89791;-82
2024/04/13 09:55:56;;;;;;;5.68;2.22;;;;;;;;;;4998883;27;88544;-89
2024/04/13 09:58:40;;;;;;;6.90;2.35;;;;;;;;;;4988922;28;89369;-81
2024/04/13 10:01:16;;;;;;;7.38;2.33;;;;;;;;;;4990707;28;87937;-81
2024/04/13 10:03:46;;;;;;;6.70;1.90;;;;;;;;;;5011209;27;89051;-81
2024/04/13 10:06:17;;;;;;;7.43;2.33;;;;;;;;;;4998753;28;86788;-81
2024/04/13 10:08:54;;;;;;;5.05;2.13;;;;;;;;;;5015605;28;88481;-82
2024/04/13 10:11:24;;;;;;;5.00;2.40;;;;;;;;;;5035554;27;86540;-81
2024/04/13 10:13:55;;;;;;;5.07;2.00;;;;;;;;;;5038765;27;90167;-82
2024/04/13 10:16:27;;;;;;;4.55;1.95;;;;;;;;;;5053608;27;86108;-80
2024/04/13 10:19:26;;;;;;;4.68;2.05;;;;;;;;;;5023342;27;89357;-80
2024/04/13 10:22:06;;;;;;;5.30;2.10;;;;;;;;;;4983636;27;89728;-83
2024/04/13 10:25:04;;;;;;;4.95;2.00;;;;;;;;;;5028350;27;87112;-81
2024/04/13 10:27:38;;;;;;;4.32;1.80;;;;;;;;;;5047775;27;86189;-79
2024/04/13 10:30:18;;;;;;;6.43;2.10;;;;;;;;;;5053141;27;89242;-80
2024/04/13 10:32:52;;;;;;;7.00;2.40;;;;;;;;;;5012452;27;89279;-82
2024/04/13 10:35:26;;;;;;;6.45;2.35;;;;;;;;;;5011275;27;89084;-81
2024/04/13 10:38:15;;;;;;;4.50;1.92;;;;;;;;;;4951678;28;91517;-81
2024/04/13 10:40:47;;;;;;;5.65;2.00;;;;;;;;;;5044296;27;86493;-83
2024/04/13 10:43:23;;;;;;;4.57;2.00;;;;;;;;;;4987423;28;86860;-82
2024/04/13 10:46:08;;;;;;;3.90;1.90;;;;;;;;;;4993848;28;94103;-83
2024/04/13 10:48:52;;;;;;;4.55;2.00;;;;;;;;;;4995062;28;88486;-81
2024/04/13 10:51:30;;;;;;;4.13;1.88;;;;;;;;;;5017090;28;87450;-81
2024/04/13 10:53:59;;;;;;;6.53;2.30;;;;;;;;;;4999982;27;85899;-80
2024/04/13 10:56:34;;;;;;;4.85;1.85;;;;;;;;;;5019243;28;87084;-81
2024/04/13 10:59:27;;;;;;;6.07;2.50;;;;;;;;;;4998438;28;87207;-81
2024/04/13 11:01:59;;;;;;;5.40;2.00;;;;;;;;;;4972377;28;88478;-82
2024/04/13 11:33:01;;;;;;;4.75;2.10;;;;;;;;;;4724423;23;88339;-88
2024/04/13 12:08:50;;;;;;;5.53;2.25;;;;;;;;;;4811484;29;92702;-81
2024/04/13 12:11:21;;;;;;;6.03;1.98;;;;;;;;;;4848780;29;89950;-80
2024/04/13 12:13:52;;;;;;;6.03;2.00;;;;;;;;;;4862853;28;87193;-80
2024/04/13 12:16:20;;;;;;;5.30;2.10;;;;;;;;;;4864507;28;88237;-79
2024/04/13 12:18:48;;;;;;;4.50;1.73;;;;;;;;;;4891915;28;86934;-79
2024/04/13 12:21:20;;;;;;;5.93;2.40;;;;;;;;;;4866640;28;89490;-80
2024/04/13 12:23:47;;;;;;;5.72;2.20;;;;;;;;;;4884231;28;89163;-81
2024/04/13 12:26:15;;;;;;;5.30;2.22;;;;;;;;;;4897065;28;87078;-79
2024/04/13 12:28:44;;;;;;;3.85;1.90;;;;;;;;;;4849531;28;86675;-81
2024/04/13 12:31:17;;;;;;;4.00;1.90;;;;;;;;;;4813109;29;90507;-81
2024/04/13 12:33:56;;;;;;;5.72;2.30;;;;;;;;;;4782408;29;89855;-81
2024/04/13 12:36:26;;;;;;;4.18;1.83;;;;;;;;;;4864054;29;88348;-82
2024/04/13 12:38:54;;;;;;;6.15;2.00;;;;;;;;;;4839746;29;89858;-83
2024/04/13 12:41:23;;;;;;;5.80;2.00;;;;;;;;;;4834345;29;87009;-81
2024/04/13 12:43:52;;;;;;;4.15;1.77;;;;;;;;;;4818619;29;89621;-82
2024/04/13 12:46:26;;;;;;;5.88;1.92;;;;;;;;;;4814651;29;87572;-82
2024/04/13 12:49:00;;;;;;;4.03;2.00;;;;;;;;;;4836375;29;88764;-80
2024/04/13 12:51:34;;;;;;;3.88;1.77;;;;;;;;;;4864355;29;86854;-80
2024/04/13 12:54:03;;;;;;;4.40;2.00;;;;;;;;;;4860397;28;93675;-80
2024/04/13 12:56:32;;;;;;;5.72;2.17;;;;;;;;;;4862527;28;88114;-81
2024/04/13 12:59:04;;;;;;;5.40;2.08;;;;;;;;;;4870787;29;90641;-84
2024/04/13 13:01:34;;;;;;;5.05;1.88;;;;;;;;;;4816288;29;87587;-82
2024/04/13 13:04:05;;;;;;;4.13;1.90;;;;;;;;;;4840271;29;91194;-80
2024/04/13 13:06:47;;;;;;;5.45;1.80;;;;;;;;;;4834992;29;90138;-82
2024/04/13 13:09:25;;;;;;;5.60;2.08;;;;;;;;;;4836304;29;92668;-84
2024/04/13 13:12:04;;;;;;;5.80;1.77;;;;;;;;;;4781515;29;93867;-84
2024/04/13 13:14:37;;;;;;;4.47;1.98;;;;;;;;;;4815479;29;86502;-82
2024/04/13 13:17:10;;;;;;;5.75;1.83;;;;;;;;;;4837301;29;86813;-83
2024/04/13 13:19:46;;;;;;;4.80;1.60;;;;;;;;;;4813886;29;89785;-84
2024/04/13 13:22:33;;;;;;;4.35;1.70;;;;;;;;;;4835590;29;88172;-83
2024/04/13 13:25:28;;;;;;;3.33;1.50;;;;;;;;;;4848989;28;89675;-82
2024/04/13 13:28:15;;;;;;;6.05;1.70;;;;;;;;;;4891158;28;86520;-85
2024/04/13 13:31:37;;;;;;;7.30;1.70;;;;;;;;;;4845271;28;90489;-85
2024/04/13 13:34:51;;;;;;;5.63;1.50;;;;;;;;;;4867144;29;90914;-81
2024/04/13 13:37:35;;;;;;;7.03;1.90;;;;;;;;;;4828544;28;87435;-83
2024/04/13 13:40:24;;;;;;;2.88;1.50;;;;;;;;;;4785069;29;93445;-86
2024/04/13 13:43:20;;;;;;;4.95;1.70;;;;;;;;;;4831755;29;87053;-84
2024/04/13 13:46:27;;;;;;;6.18;1.95;;;;;;;;;;4807930;28;93345;-83
2024/04/13 13:49:18;;;;;;;4.85;1.77;;;;;;;;;;4783940;29;87470;-84
2024/04/13 13:52:08;;;;;;;4.18;1.50;;;;;;;;;;4818206;28;88281;-84
2024/04/13 13:54:39;;;;;;;6.40;1.80;;;;;;;;;;4865884;28;86840;-80
2024/04/13 13:57:16;;;;;;;10.88;2.05;;;;;;;;;;4823789;29;88228;-83
2024/04/13 13:59:49;;;;;;;3.90;1.80;;;;;;;;;;4836178;28;89686;-83
2024/04/13 14:02:24;;;;;;;4.35;1.70;;;;;;;;;;4837055;29;88070;-83
2024/04/13 14:04:59;;;;;;;3.22;1.67;;;;;;;;;;4841913;28;89804;-82
2024/04/13 14:07:41;;;;;;;4.30;1.80;;;;;;;;;;4800933;29;87082;-83
2024/04/13 14:10:26;;;;;;;3.88;1.60;;;;;;;;;;4857983;28;86699;-83
2024/04/13 14:13:07;;;;;;;3.97;1.73;;;;;;;;;;4867405;28;86722;-85
2024/04/13 14:15:39;;;;;;;4.35;1.80;;;;;;;;;;4817064;28;88592;-83
2024/04/13 14:18:17;;;;;;;4.90;1.70;;;;;;;;;;4854946;28;90091;-83
2024/04/13 14:20:56;;;;;;;6.68;3.42;;;;;;;;;;4829325;29;89455;-83
2024/04/13 14:23:36;;;;;;;8.10;4.00;;;;;;;;;;4831791;28;88811;-82
2024/04/13 14:26:06;;;;;;;8.38;4.28;;;;;;;;;;4832064;29;91109;-82
2024/04/13 14:28:38;;;;;;;8.77;3.85;;;;;;;;;;4798552;29;88834;-82
2024/04/13 14:31:12;;;;;;;9.18;3.88;;;;;;;;;;4829233;29;86657;-81
2024/04/13 14:33:40;;;;;;;9.98;4.30;;;;;;;;;;4835906;29;89532;-79
2024/04/13 14:36:07;;;;;;;11.52;3.35;;;;;;;;;;4834602;29;86673;-81
2024/04/13 14:38:35;;;;;;;10.00;3.97;;;;;;;;;;4832931;29;87007;-81
2024/04/13 14:41:02;;;;;;;9.25;4.15;;;;;;;;;;4811116;29;86678;-81
2024/04/13 14:43:29;;;;;;;;;;;;;;;;;;4835680;29;88434;-81
2024/04/13 14:45:56;;;;;;;10.23;4.50;;;;;;;;;;4836788;29;87119;-81
2024/04/13 14:48:23;;;;;;;10.65;4.60;;;;;;;;;;4812902;29;86929;-82
2024/04/13 14:50:51;;;;;;;10.38;4.82;;;;;;;;;;4838357;29;86122;-81
2024/04/13 14:53:19;;;;;;;9.18;4.70;;;;;;;;;;4838106;29;89082;-81
2024/04/13 14:55:48;;;;;;;9.57;4.30;;;;;;;;;;4841652;28;87618;-83
2024/04/13 14:58:15;;;;;;;10.32;4.32;;;;;;;;;;4842816;29;86732;-79
2024/04/13 15:00:44;;;;;;;9.20;4.43;;;;;;;;;;4843903;29;87168;-81
2024/04/13 15:03:14;;;;;;;10.90;4.15;;;;;;;;;;4852333;28;86628;-82
2024/04/13 15:05:42;;;;;;;8.90;4.35;;;;;;;;;;4831224;28;89797;-79
2024/04/13 15:08:10;;;;;;;11.55;4.65;;;;;;;;;;4853263;28;87540;-81
2024/04/13 15:10:41;;;;;;;8.38;4.10;;;;;;;;;;4853224;28;86250;-81
2024/04/13 15:13:08;;;;;;;10.35;4.28;;;;;;;;;;4832344;29;87718;-81
2024/04/13 15:15:35;;;;;;;9.48;4.25;;;;;;;;;;4846955;28;86950;-81
2024/04/13 15:18:02;;;;;;;8.57;3.90;;;;;;;;;;4854152;28;86709;-83
2024/04/13 15:20:31;;;;;;;12.32;4.28;;;;;;;;;;4837812;28;87318;-80
2024/04/13 15:22:58;;;;;;;9.57;4.20;;;;;;;;;;4850299;28;86336;-79
2024/04/13 15:25:31;;;;;;;10.75;4.72;;;;;;;;;;4855701;28;85633;-81
2024/04/13 15:27:58;;;;;;;10.98;4.75;;;;;;;;;;4894693;28;86988;-82
2024/04/13 15:30:26;;;;;;;10.05;4.00;;;;;;;;;;4896246;28;86701;-81
2024/04/13 15:32:53;;;;;;;9.68;4.53;;;;;;;;;;4895771;28;87287;-82
2024/04/13 15:35:21;;;;;;;9.60;4.35;;;;;;;;;;4896083;28;89165;-80
2024/04/13 15:37:48;;;;;;;9.55;4.40;;;;;;;;;;4894008;28;86317;-80
2024/04/13 15:40:15;;;;;;;9.10;4.28;;;;;;;;;;4869007;28;86961;-79
2024/04/13 15:42:42;;;;;;;;;;;;;;;;;;4866189;28;86307;-81
2024/04/13 15:45:10;;;;;;;10.07;4.63;;;;;;;;;;4853497;29;91727;-80
2024/04/13 15:47:37;;;;;;;8.25;4.07;;;;;;;;;;4864262;28;86602;-80
2024/04/13 15:50:04;;;;;;;9.75;3.95;;;;;;;;;;4866400;29;85844;-80
2024/04/13 15:52:31;;;;;;;9.60;4.25;;;;;;;;;;4855899;29;86771;-79
2024/04/13 15:54:59;;;;;;;9.57;4.32;;;;;;;;;;4833747;29;90030;-79
2024/04/13 15:57:26;;;;;;;8.98;4.30;;;;;;;;;;4836323;29;87980;-79
2024/04/13 15:59:58;;;;;;;8.98;3.95;;;;;;;;;;4846783;28;87470;-78
2024/04/13 16:02:26;;;;;;;9.05;3.90;;;;;;;;;;4866419;28;90064;-81
2024/04/13 16:04:54;;;;;;;7.95;3.83;;;;;;;;;;4866840;28;88569;-79
2024/04/13 16:07:21;;;;;;;10.63;3.97;;;;;;;;;;4839902;29;87607;-81
2024/04/13 16:09:49;;;;;;;9.45;3.35;;;;;;;;;;4859300;28;88670;-80
2024/04/13 16:12:20;;;;;;;7.85;3.38;;;;;;;;;;4893287;28;89531;-81
2024/04/13 16:14:51;;;;;;;7.70;2.92;;;;;;;;;;4891883;28;86131;-81
2024/04/13 16:17:19;;;;;;;7.15;2.72;;;;;;;;;;4894945;28;86566;-79
2024/04/13 16:19:51;;;;;;;7.53;3.00;;;;;;;;;;4887709;28;87640;-80
2024/04/13 16:22:23;;;;;;;7.47;3.05;;;;;;;;;;4835430;29;91410;-79
2024/04/13 16:24:55;;;;;;;7.53;2.85;;;;;;;;;;4865391;28;86600;-80
2024/04/13 16:27:24;;;;;;;8.30;3.05;;;;;;;;;;4870787;28;90066;-81
2024/04/13 16:29:54;;;;;;;6.85;2.90;;;;;;;;;;4864866;28;90598;-80
2024/04/13 16:32:22;;;;;;;7.07;2.88;;;;;;;;;;4871188;28;89549;-81
2024/04/13 16:34:49;;;;;;;7.55;3.10;;;;;;;;;;4856929;28;87205;-81
2024/04/13 16:37:21;;;;;;;7.53;2.90;;;;;;;;;;4862802;29;86670;-80
2024/04/13 16:39:52;;;;;;;9.80;3.05;;;;;;;;;;4816064;28;89365;-80
2024/04/13 16:42:22;;;;;;;6.47;2.90;;;;;;;;;;4861556;28;90029;-79
2024/04/13 16:44:51;;;;;;;8.15;2.97;;;;;;;;;;4816959;29;89071;-80
2024/04/13 16:47:18;;;;;;;9.27;3.08;;;;;;;;;;4842022;29;87629;-80